createdAt,value
2022-08-05T00:00:16.131Z,3.50
2022-08-05T00:02:51.296Z,3.60
2022-08-05T00:06:02.063Z,3.80
2022-08-05T00:08:32.615Z,3.38
2022-08-05T00:11:00.221Z,3.42
2022-08-05T00:13:38.876Z,2.97
2022-08-05T00:16:11.097Z,3.60
2022-08-05T00:18:44.614Z,3.75
2022-08-05T00:21:14.476Z,3.50
2022-08-05T00:23:46.847Z,3.55
2022-08-05T00:26:33.210Z,3.83
2022-08-05T00:29:00.948Z,3.15
2022-08-05T00:31:53.156Z,3.38
2022-08-05T00:34:56.059Z,3.65
2022-08-05T00:37:13.094Z,3.10
2022-08-05T00:39:57.293Z,3.13
2022-08-05T00:42:34.958Z,3.22
2022-08-05T00:45:03.124Z,3.50
2022-08-05T00:47:53.350Z,3.70
2022-08-05T00:50:18.606Z,3.47
2022-08-05T00:52:48.769Z,3.50
2022-08-05T00:55:16.478Z,3.42
2022-08-05T00:57:58.812Z,3.15
2022-08-05T01:00:27.825Z,4.03
2022-08-05T01:02:56.518Z,3.75
2022-08-05T01:05:24.789Z,3.60
2022-08-05T01:08:30.789Z,4.13
2022-08-05T01:10:51.658Z,3.50
2022-08-05T01:13:27.550Z,3.40
2022-08-05T01:16:26.063Z,3.60
2022-08-05T01:19:00.812Z,3.75
2022-08-05T01:21:53.658Z,4.20
2022-08-05T01:24:34.133Z,3.78
2022-08-05T01:27:24.339Z,3.70
2022-08-05T01:29:57.489Z,3.97
2022-08-05T01:32:29.294Z,4.68
2022-08-05T01:35:01.994Z,3.97
2022-08-05T01:37:37.836Z,3.67
2022-08-05T01:40:14.029Z,4.00
2022-08-05T01:42:48.210Z,3.60
2022-08-05T01:45:19.252Z,3.90
2022-08-05T01:47:50.490Z,3.75
2022-08-05T01:50:28.625Z,3.53
2022-08-05T01:53:01.357Z,3.88
2022-08-05T01:55:31.942Z,4.00
2022-08-05T01:58:10.630Z,3.92
2022-08-05T02:00:49.955Z,3.83
2022-08-05T02:03:28.954Z,3.50
2022-08-05T02:06:03.777Z,3.80
2022-08-05T02:08:58.221Z,3.70
2022-08-05T02:11:33.067Z,3.80
2022-08-05T02:14:06.429Z,4.03
2022-08-05T02:16:44.072Z,3.50
2022-08-05T02:22:26.512Z,3.97
2022-08-05T02:25:03.060Z,3.90
2022-08-05T02:27:57.896Z,3.70
2022-08-05T02:30:23.908Z,3.83
2022-08-05T02:32:59.843Z,3.47
2022-08-05T02:35:33.367Z,4.22
2022-08-05T02:38:09.301Z,4.15
2022-08-05T02:40:38.539Z,4.20
2022-08-05T02:43:07.946Z,3.15
2022-08-05T02:45:52.316Z,3.67
2022-08-05T02:48:29.295Z,4.28
2022-08-05T02:51:01.225Z,3.78
2022-08-05T02:53:39.096Z,3.60
2022-08-05T02:56:09.246Z,3.70
2022-08-05T02:58:37.934Z,4.00
2022-08-05T03:01:15.817Z,3.90
2022-08-05T03:04:02.583Z,3.53
2022-08-05T03:06:53.880Z,4.22
2022-08-05T03:09:37.453Z,3.50
2022-08-05T03:12:11.692Z,3.40
2022-08-05T03:14:46.066Z,3.38
2022-08-05T03:17:15.795Z,3.10
2022-08-05T03:19:45.750Z,3.45
2022-08-05T03:22:16.840Z,3.13
2022-08-05T03:24:50.936Z,3.58
2022-08-05T03:27:20.666Z,3.65
2022-08-05T03:30:07.339Z,3.47
2022-08-05T03:32:37.450Z,3.40
2022-08-05T03:35:09.422Z,3.53
2022-08-05T03:37:46.427Z,3.75
2022-08-05T03:40:31.500Z,3.45
2022-08-05T03:43:15.824Z,3.47
2022-08-05T03:45:57.727Z,3.50
2022-08-05T03:48:26.958Z,3.35
2022-08-05T03:52:36.906Z,3.75
2022-08-05T03:56:04.837Z,3.90
2022-08-05T03:56:46.860Z,3.45
2022-08-05T03:59:20.401Z,3.38
2022-08-05T04:01:51.061Z,3.25
2022-08-05T04:04:22.378Z,3.30
2022-08-05T04:06:56.919Z,3.70
2022-08-05T04:09:26.417Z,3.53
2022-08-05T04:11:56.714Z,4.00
2022-08-05T04:14:30.663Z,3.25
2022-08-05T04:17:00.626Z,3.70
2022-08-05T04:19:29.546Z,3.28
2022-08-05T04:22:09.220Z,3.67
2022-08-05T04:24:44.312Z,3.53
2022-08-05T04:27:13.453Z,3.40
2022-08-05T04:29:41.370Z,3.65
2022-08-05T04:32:09.797Z,4.35
2022-08-05T04:34:42.886Z,3.65
2022-08-05T04:37:12.795Z,3.83
2022-08-05T04:39:40.647Z,4.78
2022-08-05T04:42:09.775Z,3.45
2022-08-05T04:44:37.545Z,3.50
2022-08-05T04:47:09.913Z,3.65
2022-08-05T04:50:01.515Z,3.50
2022-08-05T04:52:29.222Z,3.97
2022-08-05T04:55:13.955Z,3.80
2022-08-05T04:57:48.026Z,3.25
2022-08-05T05:00:23.477Z,3.80
2022-08-05T05:02:52.145Z,3.75
2022-08-05T05:05:28.394Z,3.20
2022-08-05T05:08:02.362Z,3.83
2022-08-05T05:10:33.075Z,3.75
2022-08-05T05:13:01.692Z,3.65
2022-08-05T05:15:57.032Z,3.90
2022-08-05T05:18:31.384Z,3.47
2022-08-05T05:21:02.273Z,3.58
2022-08-05T05:24:02.525Z,4.05
2022-08-05T05:26:20.019Z,3.63
2022-08-05T05:28:56.513Z,3.50
2022-08-05T05:31:25.323Z,4.47
2022-08-05T05:34:02.039Z,3.92
2022-08-05T05:36:30.716Z,4.15
2022-08-05T05:39:00.779Z,3.60
2022-08-05T05:41:40.447Z,3.75
2022-08-05T05:44:36.923Z,3.10
2022-08-05T05:46:58.078Z,3.85
2022-08-05T05:49:25.991Z,4.38
2022-08-05T05:51:53.813Z,4.28
2022-08-05T05:54:49.756Z,4.18
2022-08-05T05:57:13.444Z,4.28
2022-08-05T05:59:41.780Z,3.35
2022-08-05T06:02:11.017Z,3.30
2022-08-05T06:04:38.716Z,3.63
2022-08-05T06:07:06.423Z,3.58
2022-08-05T06:09:52.684Z,4.13
2022-08-05T06:12:22.989Z,3.40
2022-08-05T06:14:54.913Z,4.00
2022-08-05T06:17:24.746Z,4.20
2022-08-05T06:19:59.539Z,4.65
2022-08-05T06:22:29.670Z,4.93
2022-08-05T06:24:59.166Z,5.07
2022-08-05T06:28:11.342Z,5.38
2022-08-05T06:30:17.880Z,5.57
2022-08-05T06:32:48.558Z,5.47
2022-08-05T06:36:03.180Z,4.72
2022-08-05T06:38:11.716Z,4.93
2022-08-05T06:40:42.079Z,5.10
2022-08-05T06:43:58.580Z,5.18
2022-08-05T06:46:03.992Z,5.30
2022-08-05T06:48:53.199Z,4.70
2022-08-05T06:51:29.320Z,5.03
2022-08-05T06:53:58.765Z,5.20
2022-08-05T06:56:28.841Z,4.57
2022-08-05T06:58:57.506Z,4.63
2022-08-05T07:01:27.709Z,4.18
2022-08-05T07:04:00.012Z,4.53
2022-08-05T07:06:28.770Z,4.57
2022-08-05T07:08:56.579Z,4.53
2022-08-05T07:11:31.000Z,4.00
2022-08-05T07:14:29.070Z,3.92
2022-08-05T07:17:58.597Z,3.90
2022-08-05T07:22:37.007Z,4.20
2022-08-05T07:25:23.553Z,3.88
2022-08-05T07:28:04.198Z,4.45
2022-08-05T07:30:39.005Z,5.00
2022-08-05T07:33:15.686Z,5.10
2022-08-05T07:36:01.694Z,5.53
2022-08-05T07:38:42.961Z,5.85
2022-08-05T07:42:07.028Z,5.57
2022-08-05T07:44:04.437Z,6.15
2022-08-05T07:46:33.806Z,5.85
2022-08-05T07:49:06.254Z,6.22
2022-08-05T07:51:40.807Z,6.45
2022-08-05T07:54:16.249Z,5.95
2022-08-05T07:57:01.827Z,5.68
2022-08-05T07:59:40.498Z,6.22
2022-08-05T08:02:15.365Z,5.90
2022-08-05T08:04:45.487Z,6.15
2022-08-05T08:07:13.670Z,5.85
2022-08-05T08:09:41.341Z,6.30
2022-08-05T08:12:27.528Z,4.78
2022-08-05T08:15:02.531Z,4.20
2022-08-05T08:17:31.255Z,4.72
2022-08-05T08:20:21.994Z,3.22
2022-08-05T08:22:56.010Z,3.60
2022-08-05T08:25:26.386Z,3.83
2022-08-05T08:27:55.159Z,3.83
2022-08-05T08:30:32.356Z,3.15
2022-08-05T08:33:13.851Z,4.30
2022-08-05T08:35:52.370Z,4.85
2022-08-05T08:38:35.321Z,4.97
2022-08-05T08:41:06.751Z,4.60
2022-08-05T08:45:22.832Z,4.40
2022-08-05T17:29:40.790Z,0.80
2022-08-05T17:32:11.793Z,0.50
2022-08-05T17:34:44.972Z,0.60
2022-08-05T17:37:39.342Z,0.40
2022-08-05T17:40:03.753Z,0.80
2022-08-05T17:42:33.048Z,0.40
2022-08-05T17:45:17.923Z,0.40
2022-08-05T17:47:53.538Z,0.60
2022-08-05T17:50:28.459Z,0.60
2022-08-05T17:52:58.066Z,0.85
2022-08-05T17:55:34.448Z,0.80
2022-08-05T17:58:12.294Z,0.73
2022-08-05T18:00:45.450Z,0.80
2022-08-05T18:03:33.445Z,0.90
2022-08-05T18:06:11.535Z,0.85
2022-08-05T18:08:44.218Z,0.70
2022-08-05T18:11:24.293Z,0.98
2022-08-05T18:13:57.597Z,1.13
2022-08-05T18:16:29.176Z,0.70
2022-08-05T18:18:57.252Z,0.90
2022-08-05T18:21:26.405Z,1.20
2022-08-05T18:23:56.024Z,1.10
2022-08-05T18:26:29.594Z,0.82
2022-08-05T18:28:59.812Z,1.00
2022-08-05T18:31:33.755Z,1.23
2022-08-05T18:34:03.747Z,0.77
2022-08-05T18:36:35.231Z,0.70
2022-08-05T18:39:03.071Z,0.80
2022-08-05T18:41:57.517Z,0.90
2022-08-05T18:44:33.353Z,1.10
2022-08-05T18:47:04.810Z,1.00
2022-08-05T18:49:57.231Z,1.00
2022-08-05T18:52:37.020Z,0.80
2022-08-05T18:55:10.288Z,1.00
2022-08-05T18:57:43.024Z,1.50
2022-08-05T19:00:20.046Z,0.80
2022-08-05T19:02:49.967Z,1.00
2022-08-05T19:06:05.683Z,1.00
2022-08-05T19:08:13.445Z,0.88
2022-08-05T19:10:41.898Z,1.08
2022-08-05T19:13:12.466Z,0.90
2022-08-05T19:16:00.119Z,0.80
2022-08-05T19:18:32.884Z,0.80
2022-08-05T19:21:00.706Z,1.10
2022-08-05T19:24:07.921Z,0.70
2022-08-05T19:26:19.565Z,0.90
2022-08-05T19:28:47.126Z,1.05
2022-08-05T19:31:17.901Z,1.02
2022-08-05T19:33:56.651Z,1.00
2022-08-05T19:36:25.701Z,0.95
2022-08-05T19:38:54.774Z,0.80
2022-08-05T19:41:58.323Z,1.05
2022-08-05T19:44:14.289Z,1.17
2022-08-05T19:46:43.683Z,1.10
2022-08-05T19:49:17.086Z,1.20
2022-08-05T19:52:04.896Z,1.70
2022-08-05T19:54:35.120Z,1.30
2022-08-05T19:57:08.461Z,1.73
2022-08-05T20:00:01.857Z,1.88
2022-08-05T20:02:26.993Z,1.67
2022-08-05T20:04:58.407Z,1.67
2022-08-05T20:07:47.157Z,1.67
2022-08-05T20:10:14.779Z,1.77
2022-08-05T20:12:47.833Z,1.75
2022-08-05T20:15:48.288Z,1.70
2022-08-05T20:18:10.819Z,1.83
2022-08-05T20:20:55.058Z,1.60
2022-08-05T20:23:23.788Z,1.45
2022-08-05T20:26:08.802Z,1.60
2022-08-05T20:28:44.586Z,1.40
2022-08-05T20:31:12.478Z,1.70
2022-08-05T20:33:42.168Z,1.60
2022-08-05T20:36:11.858Z,1.23
2022-08-05T20:38:54.208Z,1.70
2022-08-05T20:41:27.511Z,1.67
2022-08-05T20:44:19.299Z,1.45
2022-08-05T20:46:59.350Z,1.40
2022-08-05T20:49:27.456Z,1.13
2022-08-05T20:51:58.011Z,1.02
2022-08-05T20:54:55.331Z,0.80
2022-08-05T20:57:14.701Z,0.98
2022-08-05T21:00:20.346Z,1.20
2022-08-05T21:02:48.870Z,1.17
2022-08-05T21:05:19.832Z,1.00
2022-08-05T21:07:52.137Z,0.85
2022-08-05T21:10:20.569Z,1.02
2022-08-05T21:12:57.721Z,0.73
2022-08-05T21:15:26.332Z,1.00
2022-08-05T21:18:01.906Z,0.90
2022-08-05T21:20:33.525Z,0.93
2022-08-05T21:23:03.437Z,0.90
2022-08-05T21:25:34.047Z,1.13
2022-08-05T21:28:02.758Z,1.02
2022-08-05T21:30:31.357Z,0.77
2022-08-05T21:32:59.795Z,1.00
2022-08-05T21:35:55.540Z,0.90
2022-08-05T21:38:19.154Z,0.98
2022-08-05T21:40:46.917Z,1.00
2022-08-05T21:43:24.261Z,0.90
2022-08-05T21:45:57.953Z,1.20
2022-08-05T21:48:28.145Z,1.20
2022-08-05T21:50:56.112Z,1.10
2022-08-05T21:53:27.523Z,1.25
2022-08-05T21:56:04.733Z,1.10
2022-08-05T21:58:42.447Z,1.20
2022-08-05T22:01:23.803Z,1.20
2022-08-05T22:03:53.342Z,0.93
2022-08-05T22:06:34.917Z,1.05
2022-08-05T22:09:14.557Z,1.17
2022-08-05T22:11:43.320Z,1.40
2022-08-05T22:14:33.397Z,1.10
2022-08-05T22:17:05.156Z,1.40
2022-08-05T22:20:00.867Z,1.00
2022-08-05T22:22:27.019Z,1.38
2022-08-05T22:25:18.147Z,1.52
2022-08-05T22:28:09.268Z,1.52
2022-08-05T22:30:43.946Z,1.23
2022-08-05T22:33:57.880Z,1.90
2022-08-05T22:36:11.430Z,1.50
2022-08-05T22:38:42.751Z,1.55
2022-08-05T22:41:11.991Z,1.90
2022-08-05T22:43:42.701Z,1.50
2022-08-05T22:46:13.119Z,1.50
2022-08-05T22:48:41.840Z,1.30
2022-08-05T22:51:15.751Z,1.40
2022-08-05T22:53:50.293Z,1.70
2022-08-05T22:56:30.597Z,1.40
2022-08-05T22:59:00.003Z,1.50
2022-08-05T23:02:04.358Z,1.45
2022-08-05T23:04:18.657Z,1.20
2022-08-05T23:06:47.843Z,1.40
2022-08-05T23:09:27.108Z,1.23
2022-08-05T23:12:05.559Z,1.17
2022-08-05T23:14:33.670Z,1.38
2022-08-05T23:17:24.498Z,1.00
2022-08-05T23:20:03.759Z,1.30
2022-08-05T23:22:33.213Z,1.02
2022-08-05T23:25:00.906Z,1.40
2022-08-05T23:27:42.303Z,1.00
2022-08-05T23:30:18.161Z,1.20
2022-08-05T23:32:46.015Z,1.20
2022-08-05T23:35:13.959Z,1.08
2022-08-05T23:37:44.214Z,1.33
2022-08-05T23:40:12.362Z,1.13
2022-08-05T23:42:47.245Z,1.05
2022-08-05T23:45:16.133Z,1.50
2022-08-05T23:47:47.709Z,1.23
2022-08-05T23:50:17.121Z,1.20
2022-08-05T23:52:50.544Z,1.10
2022-08-05T23:55:19.619Z,1.10
2022-08-05T23:57:52.715Z,1.10
